sensor_id;sensor_type;location;lat;lon;timestamp;pressure;altitude;pressure_sealevel;temperature;humidity
46638;BME280;32365;46.938;7.390;2023-05-01T09:32:31;95197.22;;;10.99;98.75
46638;BME280;32365;46.938;7.390;2023-05-01T09:35:08;95200.19;;;11.08;100.00
46638;BME280;32365;46.938;7.390;2023-05-01T09:37:35;95207.44;;;11.23;99.48
46638;BME280;32365;46.938;7.390;2023-05-01T09:40:06;95198.41;;;11.26;98.25
46638;BME280;32365;46.938;7.390;2023-05-01T09:42:34;95202.97;;;11.18;100.00
46638;BME280;32365;46.938;7.390;2023-05-01T09:45:03;95207.75;;;11.09;96.73
46638;BME280;32365;46.938;7.390;2023-05-01T09:47:30;95207.41;;;11.57;97.04
46638;BME280;32365;46.938;7.390;2023-05-01T09:49:59;95209.72;;;11.76;96.71
46638;BME280;32365;46.938;7.390;2023-05-01T09:52:26;95208.59;;;11.49;98.39
46638;BME280;32365;46.938;7.390;2023-05-01T09:55:14;95210.72;;;11.52;100.00
46638;BME280;32365;46.938;7.390;2023-05-01T09:57:42;95208.28;;;11.63;98.46
46638;BME280;32365;46.938;7.390;2023-05-01T10:00:10;95205.56;;;11.75;97.73
46638;BME280;32365;46.938;7.390;2023-05-01T10:02:38;95207.84;;;11.71;98.47
46638;BME280;32365;46.938;7.390;2023-05-01T10:05:08;95204.88;;;11.62;97.66
46638;BME280;32365;46.938;7.390;2023-05-01T10:07:35;95201.97;;;11.59;98.43
46638;BME280;32365;46.938;7.390;2023-05-01T10:10:15;95213.44;;;11.80;98.12
46638;BME280;32365;46.938;7.390;2023-05-01T10:12:41;95223.03;;;11.62;97.04
46638;BME280;32365;46.938;7.390;2023-05-01T10:15:08;95208.91;;;11.53;99.58
46638;BME280;32365;46.938;7.390;2023-05-01T10:17:35;95217.13;;;11.84;96.10
46638;BME280;32365;46.938;7.390;2023-05-01T10:20:01;95213.91;;;11.77;94.82
46638;BME280;32365;46.938;7.390;2023-05-01T10:22:29;95213.81;;;11.89;92.91
46638;BME280;32365;46.938;7.390;2023-05-01T10:24:56;95216.97;;;12.13;93.35
46638;BME280;32365;46.938;7.390;2023-05-01T10:27:24;95221.94;;;12.14;91.75
46638;BME280;32365;46.938;7.390;2023-05-01T10:29:52;95220.06;;;12.32;91.35
46638;BME280;32365;46.938;7.390;2023-05-01T10:32:19;95222.13;;;12.08;90.82
46638;BME280;32365;46.938;7.390;2023-05-01T10:34:54;95221.88;;;12.09;91.60
46638;BME280;32365;46.938;7.390;2023-05-01T10:37:26;95229.66;;;12.09;91.22
46638;BME280;32365;46.938;7.390;2023-05-01T10:39:56;95227.84;;;11.93;93.39
46638;BME280;32365;46.938;7.390;2023-05-01T10:42:23;95224.41;;;11.87;91.84
46638;BME280;32365;46.938;7.390;2023-05-01T10:44:50;95230.34;;;11.65;92.67
46638;BME280;32365;46.938;7.390;2023-05-01T10:47:44;95230.97;;;11.73;91.71
46638;BME280;32365;46.938;7.390;2023-05-01T10:50:12;95226.84;;;11.54;90.96
46638;BME280;32365;46.938;7.390;2023-05-01T10:53:17;95228.31;;;11.67;93.30
46638;BME280;32365;46.938;7.390;2023-05-01T10:55:46;95229.94;;;11.91;88.85
46638;BME280;32365;46.938;7.390;2023-05-01T11:01:31;95231.50;;;11.75;89.47
46638;BME280;32365;46.938;7.390;2023-05-01T11:03:58;95225.78;;;11.55;89.12
46638;BME280;32365;46.938;7.390;2023-05-01T11:06:25;95232.78;;;11.72;90.40
46638;BME280;32365;46.938;7.390;2023-05-01T11:08:52;95226.44;;;11.85;90.54
46638;BME280;32365;46.938;7.390;2023-05-01T11:11:45;95231.88;;;12.00;89.45
46638;BME280;32365;46.938;7.390;2023-05-01T11:14:13;95241.81;;;12.26;88.31
46638;BME280;32365;46.938;7.390;2023-05-01T11:16:42;95243.00;;;12.18;89.24
46638;BME280;32365;46.938;7.390;2023-05-01T11:21:57;95232.81;;;11.94;88.56
46638;BME280;32365;46.938;7.390;2023-05-01T11:24:30;95233.91;;;11.59;86.97
46638;BME280;32365;46.938;7.390;2023-05-01T11:26:58;95228.91;;;11.75;88.74
46638;BME280;32365;46.938;7.390;2023-05-01T11:29:29;95224.06;;;11.44;88.35
46638;BME280;32365;46.938;7.390;2023-05-01T11:31:56;95231.38;;;11.47;90.85
46638;BME280;32365;46.938;7.390;2023-05-01T11:34:23;95231.63;;;11.46;89.94
46638;BME280;32365;46.938;7.390;2023-05-01T11:36:51;95233.25;;;11.52;89.21
46638;BME280;32365;46.938;7.390;2023-05-01T11:39:18;95236.09;;;11.33;91.28
46638;BME280;32365;46.938;7.390;2023-05-01T11:41:46;95238.75;;;11.38;93.22
46638;BME280;32365;46.938;7.390;2023-05-01T11:44:15;95235.06;;;11.51;92.07
46638;BME280;32365;46.938;7.390;2023-05-01T11:46:42;95232.06;;;11.60;93.04
46638;BME280;32365;46.938;7.390;2023-05-01T11:49:09;95233.72;;;11.32;94.92
46638;BME280;32365;46.938;7.390;2023-05-01T11:51:36;95235.38;;;11.04;96.17
46638;BME280;32365;46.938;7.390;2023-05-01T11:54:03;95235.53;;;11.14;98.44
46638;BME280;32365;46.938;7.390;2023-05-01T11:56:31;95233.63;;;10.92;98.84
46638;BME280;32365;46.938;7.390;2023-05-01T11:58:59;95240.47;;;11.16;98.82
46638;BME280;32365;46.938;7.390;2023-05-01T12:01:37;95233.38;;;10.94;96.93
46638;BME280;32365;46.938;7.390;2023-05-01T12:04:04;95236.84;;;11.17;95.83
46638;BME280;32365;46.938;7.390;2023-05-01T12:06:35;95228.78;;;11.13;93.64
46638;BME280;32365;46.938;7.390;2023-05-01T12:09:05;95231.69;;;11.17;95.04
46638;BME280;32365;46.938;7.390;2023-05-01T12:11:32;95231.31;;;11.42;96.61
46638;BME280;32365;46.938;7.390;2023-05-01T12:13:59;95235.38;;;11.72;97.29
46638;BME280;32365;46.938;7.390;2023-05-01T12:16:25;95238.81;;;11.78;95.97
46638;BME280;32365;46.938;7.390;2023-05-01T12:18:53;95242.97;;;11.79;95.33
46638;BME280;32365;46.938;7.390;2023-05-01T12:21:20;95243.22;;;11.77;96.41
46638;BME280;32365;46.938;7.390;2023-05-01T12:23:47;95250.28;;;11.31;96.61
46638;BME280;32365;46.938;7.390;2023-05-01T12:26:15;95259.41;;;11.16;97.67
46638;BME280;32365;46.938;7.390;2023-05-01T12:28:52;95256.44;;;11.42;99.04
46638;BME280;32365;46.938;7.390;2023-05-01T12:31:19;95254.53;;;11.37;96.79
46638;BME280;32365;46.938;7.390;2023-05-01T12:33:51;95252.41;;;11.51;94.89
46638;BME280;32365;46.938;7.390;2023-05-01T12:36:20;95244.88;;;11.49;94.87
46638;BME280;32365;46.938;7.390;2023-05-01T12:39:00;95244.03;;;11.44;96.85
46638;BME280;32365;46.938;7.390;2023-05-01T12:41:35;95245.97;;;11.19;96.90
46638;BME280;32365;46.938;7.390;2023-05-01T12:44:01;95237.03;;;11.27;98.66
46638;BME280;32365;46.938;7.390;2023-05-01T12:46:28;95246.63;;;11.27;98.42
46638;BME280;32365;46.938;7.390;2023-05-01T12:48:55;95235.75;;;11.13;96.95
46638;BME280;32365;46.938;7.390;2023-05-01T12:51:23;95238.13;;;11.31;95.49
46638;BME280;32365;46.938;7.390;2023-05-01T12:53:52;95244.59;;;11.46;94.30
46638;BME280;32365;46.938;7.390;2023-05-01T12:56:22;95250.84;;;11.50;95.03
46638;BME280;32365;46.938;7.390;2023-05-01T12:58:50;95242.91;;;11.22;95.94
46638;BME280;32365;46.938;7.390;2023-05-01T13:01:27;95237.84;;;10.99;95.93
46638;BME280;32365;46.938;7.390;2023-05-01T13:03:54;95241.44;;;11.27;96.48
46638;BME280;32365;46.938;7.390;2023-05-01T13:06:30;95245.44;;;11.34;95.22
46638;BME280;32365;46.938;7.390;2023-05-01T13:09:06;95236.25;;;11.61;95.21
46638;BME280;32365;46.938;7.390;2023-05-01T13:11:34;95238.38;;;11.47;96.07
46638;BME280;32365;46.938;7.390;2023-05-01T13:14:06;95232.00;;;11.37;100.00
46638;BME280;32365;46.938;7.390;2023-05-01T13:16:33;95235.44;;;11.26;100.00
46638;BME280;32365;46.938;7.390;2023-05-01T13:19:00;95233.25;;;11.35;100.00
46638;BME280;32365;46.938;7.390;2023-05-01T13:21:28;95233.66;;;11.27;100.00
46638;BME280;32365;46.938;7.390;2023-05-01T13:23:57;95218.09;;;11.27;100.00
46638;BME280;32365;46.938;7.390;2023-05-01T13:26:25;95226.28;;;11.18;100.00
46638;BME280;32365;46.938;7.390;2023-05-01T13:28:53;95226.19;;;11.30;100.00
46638;BME280;32365;46.938;7.390;2023-05-01T13:31:21;95236.16;;;11.55;100.00
46638;BME280;32365;46.938;7.390;2023-05-01T13:33:49;95233.31;;;11.74;100.00
46638;BME280;32365;46.938;7.390;2023-05-01T13:36:16;95231.72;;;12.07;100.00
46638;BME280;32365;46.938;7.390;2023-05-01T13:38:45;95231.88;;;11.83;99.95
46638;BME280;32365;46.938;7.390;2023-05-01T13:41:13;95233.53;;;11.90;99.04
46638;BME280;32365;46.938;7.390;2023-05-01T13:43:40;95239.03;;;11.93;98.74
46638;BME280;32365;46.938;7.390;2023-05-01T13:46:07;95234.88;;;12.31;98.72
46638;BME280;32365;46.938;7.390;2023-05-01T13:48:34;95236.72;;;12.14;96.61
46638;BME280;32365;46.938;7.390;2023-05-01T13:51:01;95236.19;;;12.56;98.28
46638;BME280;32365;46.938;7.390;2023-05-01T13:53:28;95238.38;;;12.70;96.48
46638;BME280;32365;46.938;7.390;2023-05-01T13:55:56;95241.56;;;12.50;93.22
46638;BME280;32365;46.938;7.390;2023-05-01T13:58:22;95235.84;;;12.75;94.60
46638;BME280;32365;46.938;7.390;2023-05-01T14:00:49;95238.25;;;12.82;93.40
46638;BME280;32365;46.938;7.390;2023-05-01T14:03:15;95230.81;;;12.19;92.26
46638;BME280;32365;46.938;7.390;2023-05-01T14:05:42;95230.66;;;12.53;94.94
46638;BME280;32365;46.938;7.390;2023-05-01T14:08:09;95231.28;;;12.38;92.61
46638;BME280;32365;46.938;7.390;2023-05-01T14:10:37;95232.22;;;12.49;89.28
46638;BME280;32365;46.938;7.390;2023-05-01T14:13:05;95221.28;;;13.01;86.53
46638;BME280;32365;46.938;7.390;2023-05-01T14:15:32;95220.38;;;13.18;85.24
46638;BME280;32365;46.938;7.390;2023-05-01T14:18:03;95215.75;;;13.25;84.11
46638;BME280;32365;46.938;7.390;2023-05-01T14:20:30;95211.00;;;12.84;85.03
46638;BME280;32365;46.938;7.390;2023-05-01T14:22:58;95204.84;;;12.96;87.20
46638;BME280;32365;46.938;7.390;2023-05-01T14:25:26;95208.69;;;13.15;87.76
46638;BME280;32365;46.938;7.390;2023-05-01T14:27:55;95203.16;;;13.12;85.14
46638;BME280;32365;46.938;7.390;2023-05-01T14:30:27;95210.81;;;12.63;80.11
46638;BME280;32365;46.938;7.390;2023-05-01T14:32:54;95207.81;;;13.04;84.64
46638;BME280;32365;46.938;7.390;2023-05-01T14:35:22;95213.69;;;13.60;80.22
46638;BME280;32365;46.938;7.390;2023-05-01T14:37:49;95211.59;;;13.57;76.67
46638;BME280;32365;46.938;7.390;2023-05-01T14:40:17;95215.72;;;13.90;77.24
46638;BME280;32365;46.938;7.390;2023-05-01T14:42:44;95219.38;;;13.99;75.67
46638;BME280;32365;46.938;7.390;2023-05-01T14:45:12;95217.34;;;14.07;75.75
46638;BME280;32365;46.938;7.390;2023-05-01T14:47:43;95227.03;;;13.74;76.83
46638;BME280;32365;46.938;7.390;2023-05-01T14:50:11;95215.97;;;13.89;79.39
46638;BME280;32365;46.938;7.390;2023-05-01T14:52:39;95217.88;;;14.09;79.54
46638;BME280;32365;46.938;7.390;2023-05-01T14:55:07;95213.03;;;13.80;78.57
46638;BME280;32365;46.938;7.390;2023-05-01T14:57:33;95207.75;;;14.12;79.22
46638;BME280;32365;46.938;7.390;2023-05-01T15:00:00;95206.56;;;14.46;76.44
46638;BME280;32365;46.938;7.390;2023-05-01T15:02:26;95204.25;;;14.60;73.22
46638;BME280;32365;46.938;7.390;2023-05-01T15:04:55;95198.19;;;14.34;71.27
46638;BME280;32365;46.938;7.390;2023-05-01T15:07:22;95203.63;;;14.22;71.10
46638;BME280;32365;46.938;7.390;2023-05-01T15:09:48;95216.34;;;14.13;70.00
46638;BME280;32365;46.938;7.390;2023-05-01T15:12:16;95206.59;;;13.88;71.39
46638;BME280;32365;46.938;7.390;2023-05-01T15:14:42;95212.47;;;13.67;71.92
46638;BME280;32365;46.938;7.390;2023-05-01T15:17:08;95218.03;;;13.49;71.28
46638;BME280;32365;46.938;7.390;2023-05-01T15:19:35;95225.34;;;13.52;74.03
46638;BME280;32365;46.938;7.390;2023-05-01T15:22:03;95219.28;;;13.08;73.25
46638;BME280;32365;46.938;7.390;2023-05-01T15:24:30;95226.88;;;13.15;74.09
46638;BME280;32365;46.938;7.390;2023-05-01T15:26:56;95230.84;;;12.96;74.30
46638;BME280;32365;46.938;7.390;2023-05-01T15:29:23;95232.16;;;12.71;73.44
46638;BME280;32365;46.938;7.390;2023-05-01T15:31:49;95234.06;;;12.53;75.96
46638;BME280;32365;46.938;7.390;2023-05-01T15:34:15;95239.81;;;12.55;74.65
46638;BME280;32365;46.938;7.390;2023-05-01T15:36:42;95242.53;;;12.43;74.83
46638;BME280;32365;46.938;7.390;2023-05-01T15:39:10;95253.38;;;12.18;74.81
46638;BME280;32365;46.938;7.390;2023-05-01T15:41:37;95282.75;;;12.41;77.57
46638;BME280;32365;46.938;7.390;2023-05-01T15:44:04;95297.13;;;12.09;78.59
46638;BME280;32365;46.938;7.390;2023-05-01T15:46:32;95299.16;;;11.39;77.09
46638;BME280;32365;46.938;7.390;2023-05-01T15:48:58;95305.19;;;11.28;78.63
46638;BME280;32365;46.938;7.390;2023-05-01T15:51:25;95308.00;;;10.80;81.89
46638;BME280;32365;46.938;7.390;2023-05-01T15:53:51;95312.75;;;10.59;83.20
46638;BME280;32365;46.938;7.390;2023-05-01T15:56:19;95311.53;;;10.50;84.50
46638;BME280;32365;46.938;7.390;2023-05-01T15:58:46;95314.56;;;10.35;85.08
46638;BME280;32365;46.938;7.390;2023-05-01T16:01:14;95304.59;;;9.79;86.87
46638;BME280;32365;46.938;7.390;2023-05-01T16:03:44;95307.41;;;9.90;87.97
46638;BME280;32365;46.938;7.390;2023-05-01T16:06:10;95313.13;;;9.68;90.60
46638;BME280;32365;46.938;7.390;2023-05-01T16:08:39;95318.97;;;9.75;89.86
46638;BME280;32365;46.938;7.390;2023-05-01T16:11:08;95320.44;;;9.83;88.57
46638;BME280;32365;46.938;7.390;2023-05-01T16:13:37;95323.91;;;9.65;90.94
46638;BME280;32365;46.938;7.390;2023-05-01T16:16:07;95319.72;;;9.52;92.69
46638;BME280;32365;46.938;7.390;2023-05-01T16:18:33;95314.63;;;9.45;93.31
46638;BME280;32365;46.938;7.390;2023-05-01T16:21:00;95317.06;;;9.28;94.79
46638;BME280;32365;46.938;7.390;2023-05-01T16:23:27;95322.28;;;9.52;94.33
46638;BME280;32365;46.938;7.390;2023-05-01T16:25:53;95317.53;;;9.25;95.34
46638;BME280;32365;46.938;7.390;2023-05-01T16:28:20;95303.56;;;9.14;96.81
46638;BME280;32365;46.938;7.390;2023-05-01T16:30:48;95317.00;;;9.04;98.80
46638;BME280;32365;46.938;7.390;2023-05-01T16:33:16;95318.19;;;8.90;100.00
46638;BME280;32365;46.938;7.390;2023-05-01T16:35:42;95315.78;;;9.07;100.00
46638;BME280;32365;46.938;7.390;2023-05-01T16:38:09;95296.63;;;9.27;100.00
46638;BME280;32365;46.938;7.390;2023-05-01T16:40:36;95291.88;;;9.12;100.00
46638;BME280;32365;46.938;7.390;2023-05-01T16:43:03;95295.19;;;9.31;100.00
46638;BME280;32365;46.938;7.390;2023-05-01T16:45:30;95298.59;;;9.43;100.00
46638;BME280;32365;46.938;7.390;2023-05-01T16:47:58;95283.75;;;9.50;100.00
46638;BME280;32365;46.938;7.390;2023-05-01T16:50:25;95279.03;;;9.47;100.00
46638;BME280;32365;46.938;7.390;2023-05-01T16:52:52;95276.34;;;9.42;99.43
46638;BME280;32365;46.938;7.390;2023-05-01T16:55:19;95278.47;;;9.45;99.75
46638;BME280;32365;46.938;7.390;2023-05-01T16:57:45;95273.19;;;9.40;99.83
46638;BME280;32365;46.938;7.390;2023-05-01T17:00:13;95272.38;;;9.39;99.25
46638;BME280;32365;46.938;7.390;2023-05-01T17:02:40;95274.44;;;9.37;97.83
46638;BME280;32365;46.938;7.390;2023-05-01T17:05:08;95272.84;;;9.36;97.99
46638;BME280;32365;46.938;7.390;2023-05-01T17:07:35;95275.63;;;9.23;98.47
46638;BME280;32365;46.938;7.390;2023-05-01T17:10:02;95269.66;;;9.22;98.84
46638;BME280;32365;46.938;7.390;2023-05-01T17:12:28;95274.53;;;9.31;99.15
46638;BME280;32365;46.938;7.390;2023-05-01T17:14:55;95277.78;;;9.26;97.97
46638;BME280;32365;46.938;7.390;2023-05-01T17:17:22;95274.88;;;9.34;97.32
46638;BME280;32365;46.938;7.390;2023-05-01T17:19:49;95269.13;;;9.44;96.89
46638;BME280;32365;46.938;7.390;2023-05-01T17:22:17;95274.53;;;9.31;96.42
46638;BME280;32365;46.938;7.390;2023-05-01T17:24:43;95277.22;;;9.24;96.39
46638;BME280;32365;46.938;7.390;2023-05-01T17:27:09;95278.56;;;9.27;97.10
46638;BME280;32365;46.938;7.390;2023-05-01T17:29:36;95280.59;;;9.36;96.14
46638;BME280;32365;46.938;7.390;2023-05-01T17:32:04;95289.13;;;9.37;95.86
46638;BME280;32365;46.938;7.390;2023-05-01T17:34:30;95286.88;;;9.29;96.73
46638;BME280;32365;46.938;7.390;2023-05-01T17:36:57;95287.78;;;9.46;97.49
46638;BME280;32365;46.938;7.390;2023-05-01T17:39:25;95287.78;;;9.46;95.55
46638;BME280;32365;46.938;7.390;2023-05-01T17:41:52;95282.53;;;9.53;95.83
46638;BME280;32365;46.938;7.390;2023-05-01T17:44:19;95291.19;;;9.47;97.44
46638;BME280;32365;46.938;7.390;2023-05-01T17:46:46;95288.47;;;9.42;98.89
46638;BME280;32365;46.938;7.390;2023-05-01T17:49:13;95287.78;;;9.34;99.52
46638;BME280;32365;46.938;7.390;2023-05-01T17:51:39;95294.09;;;9.50;98.85
46638;BME280;32365;46.938;7.390;2023-05-01T17:54:06;95294.56;;;9.59;97.55
46638;BME280;32365;46.938;7.390;2023-05-01T17:56:34;95294.47;;;9.66;95.72
46638;BME280;32365;46.938;7.390;2023-05-01T17:59:01;95295.69;;;9.51;97.90
46638;BME280;32365;46.938;7.390;2023-05-01T18:01:27;95298.03;;;9.41;98.97
46638;BME280;32365;46.938;7.390;2023-05-01T18:03:54;95298.78;;;9.42;100.00
46638;BME280;32365;46.938;7.390;2023-05-01T18:06:21;95304.41;;;9.38;100.00
46638;BME280;32365;46.938;7.390;2023-05-01T18:08:48;95301.38;;;9.42;100.00
46638;BME280;32365;46.938;7.390;2023-05-01T18:11:14;95306.44;;;9.36;100.00
46638;BME280;32365;46.938;7.390;2023-05-01T18:13:42;95306.66;;;9.35;100.00
46638;BME280;32365;46.938;7.390;2023-05-01T18:16:12;95305.44;;;9.37;100.00
46638;BME280;32365;46.938;7.390;2023-05-01T18:18:39;95322.28;;;9.40;100.00
46638;BME280;32365;46.938;7.390;2023-05-01T18:21:06;95309.94;;;9.42;100.00
46638;BME280;32365;46.938;7.390;2023-05-01T18:23:33;95316.78;;;9.36;100.00
46638;BME280;32365;46.938;7.390;2023-05-01T18:25:59;95317.47;;;9.44;100.00
46638;BME280;32365;46.938;7.390;2023-05-01T18:28:26;95309.75;;;9.55;100.00
46638;BME280;32365;46.938;7.390;2023-05-01T18:30:53;95321.38;;;9.46;100.00
46638;BME280;32365;46.938;7.390;2023-05-01T18:33:20;95314.44;;;9.47;100.00
46638;BME280;32365;46.938;7.390;2023-05-01T18:35:47;95317.59;;;9.49;100.00
46638;BME280;32365;46.938;7.390;2023-05-01T18:38:13;95319.38;;;9.48;100.00
46638;BME280;32365;46.938;7.390;2023-05-01T18:40:40;95318.13;;;9.51;100.00
46638;BME280;32365;46.938;7.390;2023-05-01T18:43:06;95318.13;;;9.39;100.00
46638;BME280;32365;46.938;7.390;2023-05-01T18:45:32;95323.47;;;9.26;100.00
46638;BME280;32365;46.938;7.390;2023-05-01T18:48:00;95324.56;;;9.18;100.00
46638;BME280;32365;46.938;7.390;2023-05-01T18:50:27;95321.88;;;9.13;100.00
46638;BME280;32365;46.938;7.390;2023-05-01T18:52:53;95323.75;;;9.05;100.00
46638;BME280;32365;46.938;7.390;2023-05-01T18:55:20;95318.22;;;9.02;100.00
46638;BME280;32365;46.938;7.390;2023-05-01T18:57:46;95316.72;;;8.94;100.00
46638;BME280;32365;46.938;7.390;2023-05-01T19:00:14;95319.81;;;8.84;100.00
46638;BME280;32365;46.938;7.390;2023-05-01T19:02:41;95335.03;;;8.74;100.00
46638;BME280;32365;46.938;7.390;2023-05-01T19:05:09;95330.97;;;8.66;100.00
46638;BME280;32365;46.938;7.390;2023-05-01T19:07:37;95330.41;;;8.64;100.00
46638;BME280;32365;46.938;7.390;2023-05-01T19:10:04;95335.84;;;8.56;100.00
46638;BME280;32365;46.938;7.390;2023-05-01T19:12:31;95339.78;;;8.77;100.00
46638;BME280;32365;46.938;7.390;2023-05-01T19:14:57;95340.94;;;8.81;100.00
46638;BME280;32365;46.938;7.390;2023-05-01T19:17:23;95344.56;;;8.92;100.00
46638;BME280;32365;46.938;7.390;2023-05-01T19:19:51;95345.53;;;8.79;100.00
46638;BME280;32365;46.938;7.390;2023-05-01T19:22:19;95349.81;;;8.67;100.00
46638;BME280;32365;46.938;7.390;2023-05-01T19:24:46;95363.56;;;8.60;100.00
46638;BME280;32365;46.938;7.390;2023-05-01T19:27:12;95361.63;;;8.56;100.00
46638;BME280;32365;46.938;7.390;2023-05-01T19:29:39;95355.94;;;8.54;100.00
46638;BME280;32365;46.938;7.390;2023-05-01T19:32:05;95357.06;;;8.58;100.00
46638;BME280;32365;46.938;7.390;2023-05-01T19:34:32;95360.56;;;8.45;100.00
46638;BME280;32365;46.938;7.390;2023-05-01T19:36:58;95356.16;;;8.45;100.00
46638;BME280;32365;46.938;7.390;2023-05-01T19:39:27;95362.38;;;8.38;100.00
46638;BME280;32365;46.938;7.390;2023-05-01T19:41:54;95365.53;;;8.40;100.00
46638;BME280;32365;46.938;7.390;2023-05-01T19:44:20;95371.72;;;8.39;100.00
46638;BME280;32365;46.938;7.390;2023-05-01T19:46:47;95371.28;;;8.42;100.00
46638;BME280;32365;46.938;7.390;2023-05-01T19:49:14;95369.47;;;8.42;100.00
46638;BME280;32365;46.938;7.390;2023-05-01T19:51:40;95372.44;;;8.46;100.00
46638;BME280;32365;46.938;7.390;2023-05-01T19:54:07;95372.78;;;8.56;100.00
46638;BME280;32365;46.938;7.390;2023-05-01T19:56:35;95376.47;;;8.60;100.00
46638;BME280;32365;46.938;7.390;2023-05-01T19:59:02;95377.50;;;8.59;100.00
46638;BME280;32365;46.938;7.390;2023-05-01T20:01:29;95381.72;;;8.54;100.00
46638;BME280;32365;46.938;7.390;2023-05-01T20:03:56;95383.16;;;8.50;100.00
46638;BME280;32365;46.938;7.390;2023-05-01T20:06:22;95390.09;;;8.49;100.00
46638;BME280;32365;46.938;7.390;2023-05-01T20:08:49;95398.25;;;8.46;100.00
46638;BME280;32365;46.938;7.390;2023-05-01T20:11:16;95396.50;;;8.65;100.00
46638;BME280;32365;46.938;7.390;2023-05-01T20:13:43;95399.44;;;8.69;100.00
46638;BME280;32365;46.938;7.390;2023-05-01T20:16:10;95396.69;;;8.63;100.00
46638;BME280;32365;46.938;7.390;2023-05-01T20:18:37;95398.69;;;8.61;100.00
46638;BME280;32365;46.938;7.390;2023-05-01T20:21:03;95392.09;;;8.47;100.00
46638;BME280;32365;46.938;7.390;2023-05-01T20:23:30;95407.25;;;8.37;100.00
46638;BME280;32365;46.938;7.390;2023-05-01T20:25:56;95404.25;;;8.40;100.00
46638;BME280;32365;46.938;7.390;2023-05-01T20:28:23;95407.75;;;8.45;100.00
46638;BME280;32365;46.938;7.390;2023-05-01T20:30:51;95415.13;;;8.49;100.00
46638;BME280;32365;46.938;7.390;2023-05-01T20:33:18;95413.53;;;8.47;100.00
46638;BME280;32365;46.938;7.390;2023-05-01T20:35:45;95410.75;;;8.42;100.00
46638;BME280;32365;46.938;7.390;2023-05-01T20:38:12;95420.66;;;8.45;100.00
46638;BME280;32365;46.938;7.390;2023-05-01T20:40:39;95422.63;;;8.50;100.00
46638;BME280;32365;46.938;7.390;2023-05-01T20:43:06;95409.31;;;8.53;100.00
46638;BME280;32365;46.938;7.390;2023-05-01T20:45:33;95420.06;;;8.50;100.00
46638;BME280;32365;46.938;7.390;2023-05-01T20:48:00;95420.63;;;8.52;100.00
46638;BME280;32365;46.938;7.390;2023-05-01T20:50:27;95415.47;;;8.52;100.00
46638;BME280;32365;46.938;7.390;2023-05-01T20:52:54;95419.66;;;8.46;100.00
46638;BME280;32365;46.938;7.390;2023-05-01T20:55:22;95419.09;;;8.44;100.00
46638;BME280;32365;46.938;7.390;2023-05-01T20:57:48;95423.06;;;8.47;100.00
46638;BME280;32365;46.938;7.390;2023-05-01T21:00:15;95422.78;;;8.55;100.00
